createdAt,value
2018-12-26T00:14:24.059Z,17.35
2018-12-26T00:16:52.731Z,17.82
2018-12-26T00:19:21.434Z,17.70
2018-12-26T00:27:20.819Z,16.80
2018-12-26T00:30:08.841Z,14.80
2018-12-26T00:32:38.911Z,16.12
2018-12-26T00:46:46.195Z,16.80
2018-12-26T00:49:24.405Z,17.23
2018-12-26T00:56:30.597Z,16.73
2018-12-26T00:58:59.856Z,15.75
2018-12-26T01:01:28.852Z,17.35
2018-12-26T01:03:57.863Z,16.70
2018-12-26T01:06:27.752Z,18.25
2018-12-26T01:08:56.653Z,18.87
2018-12-26T01:11:27.827Z,17.30
2018-12-26T01:13:56.889Z,19.25
2018-12-26T01:19:02.867Z,16.73
2018-12-26T01:21:32.156Z,17.27
2018-12-26T01:24:00.794Z,15.95
2018-12-26T01:26:29.476Z,14.98
2018-12-26T01:28:58.134Z,17.80
2018-12-26T01:31:26.811Z,18.00
2018-12-26T01:33:55.430Z,17.50
2018-12-26T01:36:24.078Z,19.50
2018-12-26T01:38:52.736Z,17.90
2018-12-26T01:41:21.426Z,17.62
2018-12-26T01:43:50.048Z,18.55
2018-12-26T01:46:18.720Z,18.05
2018-12-26T01:48:47.361Z,19.27
2018-12-26T01:51:16.089Z,20.43
2018-12-26T01:53:44.769Z,19.12
2018-12-26T01:56:13.558Z,20.57
2018-12-26T01:58:42.190Z,22.73
2018-12-26T02:01:10.869Z,22.22
2018-12-26T02:03:39.509Z,20.05
2018-12-26T02:06:08.161Z,21.60
2018-12-26T02:08:36.856Z,26.93
2018-12-26T02:11:05.536Z,20.05
2018-12-26T02:13:34.242Z,19.80
2018-12-26T02:16:02.912Z,20.62
2018-12-26T02:18:31.543Z,20.52
2018-12-26T02:21:00.511Z,19.95
2018-12-26T02:23:29.243Z,19.50
2018-12-26T02:25:57.918Z,18.70
2018-12-26T02:28:26.577Z,17.10
2018-12-26T02:30:55.258Z,23.30
2018-12-26T02:33:23.883Z,18.85
2018-12-26T02:35:52.527Z,18.12
2018-12-26T02:38:21.170Z,20.37
2018-12-26T02:40:49.904Z,23.05
2018-12-26T02:43:18.548Z,17.02
2018-12-26T02:45:47.206Z,19.10
2018-12-26T02:48:15.937Z,19.52
2018-12-26T02:50:44.551Z,19.62
2018-12-26T02:53:13.198Z,18.92
2018-12-26T02:55:41.954Z,20.80
2018-12-26T02:58:10.642Z,20.82
2018-12-26T03:00:39.292Z,19.48
2018-12-26T03:03:07.908Z,20.08
2018-12-26T03:05:36.536Z,19.87
2018-12-26T03:08:05.289Z,19.90
2018-12-26T03:10:33.953Z,19.65
2018-12-26T03:13:02.582Z,18.05
2018-12-26T03:15:31.241Z,22.85
2018-12-26T03:17:59.922Z,20.85
2018-12-26T03:20:28.632Z,19.35
2018-12-26T03:22:57.351Z,17.50
2018-12-26T03:25:25.999Z,19.20
2018-12-26T03:27:54.671Z,18.30
2018-12-26T03:30:23.350Z,18.67
2018-12-26T03:32:52.004Z,20.37
2018-12-26T03:35:20.805Z,20.32
2018-12-26T03:37:49.507Z,19.50
2018-12-26T03:40:18.264Z,23.52
2018-12-26T03:42:47.009Z,17.75
2018-12-26T03:45:55.467Z,21.17
2018-12-26T03:48:24.180Z,23.05
2018-12-26T03:50:53.047Z,21.23
2018-12-26T03:53:21.833Z,26.65
2018-12-26T03:55:50.498Z,19.85
2018-12-26T03:58:19.203Z,20.20
2018-12-26T04:00:47.947Z,19.77
2018-12-26T04:03:16.656Z,21.82
2018-12-26T04:05:45.409Z,21.68
2018-12-26T04:08:14.141Z,22.60
2018-12-26T04:10:42.907Z,21.95
2018-12-26T04:13:11.615Z,23.15
2018-12-26T04:15:40.327Z,26.52
2018-12-26T04:18:09.077Z,24.55
2018-12-26T04:20:37.724Z,27.07
2018-12-26T04:23:06.471Z,25.40
2018-12-26T04:25:35.275Z,20.88
2018-12-26T04:28:03.950Z,27.02
2018-12-26T04:30:32.615Z,23.32
2018-12-26T04:33:01.270Z,25.77
2018-12-26T04:35:29.910Z,25.90
2018-12-26T04:37:58.574Z,27.07
2018-12-26T04:40:27.234Z,32.42
2018-12-26T04:42:55.890Z,36.85
2018-12-26T04:45:24.547Z,40.58
2018-12-26T04:47:53.278Z,36.42
2018-12-26T04:50:21.887Z,42.70
2018-12-26T04:52:50.544Z,33.30
2018-12-26T04:55:19.258Z,40.12
2018-12-26T04:57:47.925Z,42.80
2018-12-26T05:00:16.586Z,51.53
2018-12-26T05:02:45.321Z,49.77
2018-12-26T05:05:14.004Z,55.55
2018-12-26T05:07:42.685Z,56.13
2018-12-26T05:10:11.325Z,43.87
2018-12-26T05:12:39.959Z,50.08
2018-12-26T05:15:08.787Z,43.50
2018-12-26T05:17:37.537Z,55.05
2018-12-26T05:20:06.361Z,46.25
2018-12-26T05:22:35.025Z,51.70
2018-12-26T05:25:03.794Z,39.70
2018-12-26T05:27:34.307Z,54.88
2018-12-26T05:30:02.882Z,47.48
2018-12-26T05:32:31.638Z,58.90
2018-12-26T05:35:00.350Z,67.80
2018-12-26T05:37:29.122Z,73.17
2018-12-26T05:39:57.748Z,60.08
2018-12-26T05:42:26.441Z,49.42
2018-12-26T05:44:55.113Z,56.18
2018-12-26T05:47:23.782Z,47.67
2018-12-26T05:49:52.409Z,55.25
2018-12-26T05:52:21.103Z,53.68
2018-12-26T05:54:49.791Z,54.25
2018-12-26T05:57:18.478Z,54.77
2018-12-26T05:59:47.151Z,49.75
2018-12-26T06:02:15.825Z,52.05
2018-12-26T06:04:44.541Z,54.80
2018-12-26T06:07:13.249Z,63.85
2018-12-26T06:09:41.926Z,47.43
2018-12-26T06:12:11.543Z,54.27
2018-12-26T06:14:40.966Z,48.83
2018-12-26T06:17:09.645Z,54.27
2018-12-26T06:19:38.325Z,52.05
2018-12-26T06:22:07.020Z,50.65
2018-12-26T06:24:35.691Z,48.52
2018-12-26T06:27:04.408Z,51.33
2018-12-26T06:29:33.095Z,50.10
2018-12-26T06:32:01.735Z,51.35
2018-12-26T06:34:30.409Z,50.20
2018-12-26T06:36:59.086Z,46.53
2018-12-26T06:39:27.751Z,47.00
2018-12-26T06:41:56.428Z,48.92
2018-12-26T06:44:25.084Z,43.50
2018-12-26T06:46:53.848Z,39.48
2018-12-26T06:49:22.632Z,35.58
2018-12-26T06:51:51.325Z,61.10
2018-12-26T06:54:20.030Z,49.90
2018-12-26T06:56:48.767Z,43.48
2018-12-26T06:59:17.450Z,39.33
2018-12-26T07:01:46.072Z,37.45
2018-12-26T07:04:14.755Z,41.20
2018-12-26T07:06:43.399Z,42.15
2018-12-26T07:09:12.091Z,44.63
2018-12-26T07:11:40.737Z,44.25
2018-12-26T07:14:28.696Z,53.55
2018-12-26T07:16:57.395Z,47.53
2018-12-26T07:19:26.067Z,52.50
2018-12-26T07:21:54.721Z,49.27
2018-12-26T07:24:23.490Z,50.58
2018-12-26T07:26:52.156Z,45.12
2018-12-26T07:29:20.883Z,46.05
2018-12-26T07:31:49.511Z,54.25
2018-12-26T07:34:18.287Z,49.55
2018-12-26T07:36:46.954Z,50.35
2018-12-26T07:39:15.716Z,48.23
2018-12-26T07:41:44.406Z,44.30
2018-12-26T07:44:13.073Z,52.10
2018-12-26T07:46:41.751Z,57.27
2018-12-26T07:49:10.436Z,47.48
2018-12-26T07:51:39.104Z,55.88
2018-12-26T07:54:07.802Z,52.03
2018-12-26T07:56:36.425Z,56.10
2018-12-26T07:59:05.194Z,56.13
2018-12-26T08:01:33.849Z,53.50
2018-12-26T08:04:02.485Z,65.57
2018-12-26T08:06:31.227Z,55.43
2018-12-26T08:08:59.872Z,54.63
2018-12-26T08:11:28.513Z,50.95
2018-12-26T08:13:57.272Z,51.83
2018-12-26T08:16:26.057Z,58.25
2018-12-26T08:18:54.859Z,54.15
2018-12-26T08:21:23.666Z,63.00
2018-12-26T08:23:52.463Z,55.58
2018-12-26T08:26:21.107Z,49.27
2018-12-26T08:28:49.847Z,51.18
2018-12-26T08:31:18.517Z,56.75
2018-12-26T08:33:47.166Z,46.88
2018-12-26T08:36:15.804Z,49.90
2018-12-26T08:38:44.537Z,48.68
2018-12-26T08:41:13.293Z,49.48
2018-12-26T08:43:41.937Z,47.90
2018-12-26T08:46:10.641Z,51.13
2018-12-26T08:48:39.329Z,51.13
2018-12-26T08:51:07.985Z,47.00
2018-12-26T08:53:36.655Z,53.42
2018-12-26T08:56:24.392Z,62.83
2018-12-26T08:58:53.410Z,59.33
2018-12-26T09:01:23.628Z,55.55
2018-12-26T09:03:52.259Z,46.10
2018-12-26T09:06:20.918Z,56.05
2018-12-26T09:08:49.557Z,53.20
2018-12-26T09:11:18.218Z,45.58
2018-12-26T09:13:46.870Z,52.43
2018-12-26T09:16:15.565Z,48.95
2018-12-26T09:18:44.193Z,50.75
2018-12-26T09:21:12.950Z,48.10
2018-12-26T09:23:41.688Z,46.48
2018-12-26T09:26:12.020Z,47.83
2018-12-26T09:28:43.886Z,50.48
2018-12-26T09:31:11.209Z,55.25
2018-12-26T09:33:39.905Z,54.30
2018-12-26T10:10:01.722Z,39.15
2018-12-26T10:12:30.827Z,43.23
2018-12-26T10:15:07.668Z,37.55
2018-12-26T10:18:00.413Z,49.48
2018-12-26T10:20:32.586Z,41.15
2018-12-26T10:30:31.024Z,47.75
2018-12-26T10:35:15.060Z,47.93
2018-12-26T10:40:33.570Z,34.80
2018-12-26T10:43:02.539Z,42.25
2018-12-26T10:50:44.405Z,37.83
2018-12-26T10:53:13.975Z,42.98
2018-12-26T10:55:49.878Z,41.88
2018-12-26T11:16:58.149Z,28.15
2018-12-26T11:20:41.224Z,32.70
2018-12-26T12:19:28.919Z,28.65
2018-12-26T12:39:49.046Z,29.27
2018-12-26T12:42:20.121Z,28.32
2018-12-26T12:48:08.945Z,33.15
2018-12-26T13:33:40.749Z,30.25
2018-12-26T13:51:00.697Z,26.68
2018-12-26T13:59:43.112Z,32.70
2018-12-26T14:02:11.907Z,39.73
2018-12-26T14:04:40.722Z,35.92
2018-12-26T14:07:09.514Z,37.35
2018-12-26T14:09:38.336Z,37.85
2018-12-26T14:12:07.141Z,31.17
2018-12-26T14:14:55.145Z,31.95
2018-12-26T14:17:26.421Z,32.67
2018-12-26T14:26:54.744Z,40.78
2018-12-26T14:29:23.446Z,39.67
2018-12-26T14:55:15.746Z,36.13
2018-12-26T14:57:59.749Z,35.58
2018-12-26T15:35:24.174Z,46.35
2018-12-26T15:38:00.105Z,44.53
2018-12-26T15:41:16.538Z,40.63
2018-12-26T15:43:46.709Z,34.40
2018-12-26T15:46:15.343Z,37.00
2018-12-26T15:48:45.293Z,31.82
2018-12-26T15:51:15.677Z,33.45
2018-12-26T15:54:12.689Z,34.43
2018-12-26T16:03:25.951Z,41.85
2018-12-26T16:06:06.853Z,44.55
2018-12-26T16:07:04.277Z,37.00
2018-12-26T16:09:17.298Z,41.68
2018-12-26T16:12:07.417Z,40.43
2018-12-26T16:21:53.089Z,49.90
2018-12-26T16:24:14.011Z,47.53
2018-12-26T16:27:17.282Z,45.58
2018-12-26T16:30:05.250Z,51.18
2018-12-26T16:35:45.450Z,54.18
2018-12-26T16:39:22.671Z,47.17
2018-12-26T16:41:51.295Z,50.23
2018-12-26T16:44:27.668Z,50.63
2018-12-26T16:47:03.729Z,56.48
2018-12-26T16:49:37.838Z,58.55
2018-12-26T16:52:11.163Z,52.00
2018-12-26T17:09:04.246Z,60.95
2018-12-26T17:19:19.945Z,66.33
2018-12-26T17:36:52.252Z,68.83
2018-12-26T17:39:20.913Z,55.75
2018-12-26T17:41:50.887Z,57.08
2018-12-26T17:44:19.562Z,65.55
2018-12-26T17:46:48.243Z,56.88
2018-12-26T17:49:16.951Z,55.03
2018-12-26T17:51:45.626Z,73.47
2018-12-26T17:54:22.547Z,67.60
2018-12-26T17:56:58.056Z,59.00
2018-12-26T18:00:06.072Z,60.60
2018-12-26T18:03:14.085Z,54.67
2018-12-26T18:05:53.834Z,53.23
2018-12-26T18:09:16.218Z,68.12
2018-12-26T18:12:11.922Z,54.35
2018-12-26T18:16:19.249Z,59.93
2018-12-26T18:21:45.381Z,53.50
2018-12-26T23:47:55.411Z,54.65
2018-12-26T23:50:24.181Z,56.58
2018-12-26T23:52:52.807Z,51.58
2018-12-26T23:55:21.467Z,53.25
2018-12-26T23:57:50.339Z,57.88
